Time;durP1;ratioP1;P1;durP2;ratioP2;P2;SDS_P1;SDS_P2;PMS_P1;PMS_P2;Temp;Humidity;BMP_temperature;BMP_pressure;BME280_temperature;BME280_humidity;BME280_pressure;Samples;Min_cycle;Max_cycle;Signal;HPM_P1;HPM_P2
2022/10/28 00:01:26;;;;;;;3.90;2.17;;;;;;;28.66;22.27;99305.06;5011888;28;20021;-79
2022/10/28 00:03:59;;;;;;;3.28;2.13;;;;;;;28.72;22.49;99308.97;5012617;28;20507;-78
2022/10/28 00:06:27;;;;;;;4.55;3.22;;;;;;;28.70;21.91;99308.63;5011976;28;20084;-79
2022/10/28 00:08:53;;;;;;;4.88;3.25;;;;;;;28.64;22.14;99306.72;5013531;28;20076;-80
2022/10/28 00:11:22;;;;;;;3.72;2.78;;;;;;;28.63;21.97;99307.97;5006884;28;20034;-79
2022/10/28 00:13:49;;;;;;;5.00;2.97;;;;;;;28.66;21.71;99310.69;5006893;28;20058;-79
2022/10/28 00:16:22;;;;;;;4.32;3.40;;;;;;;28.55;21.68;99312.13;5025244;28;20039;-79
2022/10/28 00:18:51;;;;;;;4.10;3.15;;;;;;;28.53;21.62;99314.59;5007792;28;20483;-79
2022/10/28 00:21:20;;;;;;;4.93;3.05;;;;;;;28.46;21.53;99309.91;5014452;28;20057;-79
2022/10/28 00:23:46;;;;;;;7.35;4.72;;;;;;;28.25;21.16;99309.50;5011339;28;20084;-79
2022/10/28 00:26:16;;;;;;;4.93;4.03;;;;;;;28.08;21.27;99305.03;5012758;28;20046;-79
2022/10/28 00:28:53;;;;;;;4.18;3.00;;;;;;;27.89;20.85;99303.72;5006728;28;20038;-79
2022/10/28 00:31:20;;;;;;;5.43;3.67;;;;;;;27.66;21.17;99298.88;5012512;28;20091;-79
2022/10/28 00:33:47;;;;;;;4.85;3.20;;;;;;;27.10;21.64;99303.38;5007074;28;20030;-79
2022/10/28 00:36:17;;;;;;;4.20;3.55;;;;;;;26.58;22.69;99299.25;5025338;28;20026;-79
2022/10/28 00:38:45;;;;;;;6.15;4.18;;;;;;;26.37;23.28;99288.25;5007837;28;20029;-79
2022/10/28 00:41:14;;;;;;;5.15;3.65;;;;;;;26.61;23.36;99289.94;5012868;28;20062;-79
2022/10/28 00:43:48;;;;;;;4.20;2.92;;;;;;;27.00;22.52;99286.63;5008287;28;20030;-79
2022/10/28 00:46:36;;;;;;;5.65;3.13;;;;;;;27.39;21.88;99276.38;4998056;28;20056;-79
2022/10/28 00:49:20;;;;;;;5.15;3.28;;;;;;;27.32;21.88;99264.38;5008191;28;20567;-79
2022/10/28 00:51:51;;;;;;;4.32;3.10;;;;;;;27.61;21.18;99271.13;5007392;28;20044;-79
2022/10/28 00:54:17;;;;;;;3.67;2.60;;;;;;;27.28;21.37;99258.00;5011576;28;20476;-79
2022/10/28 00:56:48;;;;;;;4.78;3.42;;;;;;;26.74;22.20;99260.78;5012346;28;20038;-79
2022/10/28 00:59:25;;;;;;;4.82;3.13;;;;;;;26.72;22.59;99254.00;5011662;28;20111;-79
2022/10/28 01:01:52;;;;;;;3.67;2.80;;;;;;;27.05;21.70;99257.97;4998120;28;20061;-79
2022/10/28 01:04:19;;;;;;;4.38;3.00;;;;;;;27.20;22.00;99256.50;5009127;28;20072;-79
2022/10/28 01:06:46;;;;;;;3.70;2.70;;;;;;;27.35;21.69;99252.22;5008709;28;20113;-79
2022/10/28 01:09:12;;;;;;;4.00;2.53;;;;;;;27.47;21.56;99259.31;5009374;28;20050;-79
2022/10/28 01:11:59;;;;;;;2.83;2.25;;;;;;;27.43;22.04;99253.72;5011079;28;20038;-79
2022/10/28 01:14:37;;;;;;;3.97;3.55;;;;;;;27.50;21.64;99256.44;5011805;28;20076;-79
2022/10/28 01:17:12;;;;;;;4.30;2.75;;;;;;;27.24;21.64;99251.59;5009263;28;20034;-79
2022/10/28 01:20:13;;;;;;;4.53;2.38;;;;;;;27.18;22.07;99250.50;5003263;28;20065;-79
2022/10/28 01:23:17;;;;;;;4.45;2.80;;;;;;;27.34;21.66;99250.63;4969857;28;20290;-79
2022/10/28 01:26:20;;;;;;;2.70;2.22;;;;;;;27.09;21.66;99241.78;4998183;28;20091;-79
2022/10/28 01:29:02;;;;;;;3.03;2.72;;;;;;;27.00;22.17;99235.88;5011747;28;20096;-79
2022/10/28 01:31:44;;;;;;;5.00;2.80;;;;;;;26.70;23.10;99240.31;5008459;28;20038;-79
2022/10/28 01:34:29;;;;;;;3.33;2.33;;;;;;;26.88;22.70;99239.28;5009561;28;20480;-79
2022/10/28 01:37:12;;;;;;;3.42;2.88;;;;;;;26.90;22.98;99228.38;5010467;28;20483;-79
2022/10/28 01:40:02;;;;;;;4.53;2.58;;;;;;;26.94;23.25;99227.09;5007949;28;20027;-79
2022/10/28 01:42:37;;;;;;;3.53;2.50;;;;;;;26.92;23.56;99228.75;5025760;28;20033;-79
2022/10/28 01:45:19;;;;;;;3.63;2.63;;;;;;;27.17;23.39;99224.31;5013295;28;20128;-79
2022/10/28 01:47:54;;;;;;;4.05;2.95;;;;;;;27.50;22.58;99227.41;5008617;28;20048;-79
2022/10/28 01:50:29;;;;;;;4.13;2.50;;;;;;;27.72;22.44;99231.44;5009330;28;20030;-78
2022/10/28 01:52:59;;;;;;;5.53;2.60;;;;;;;27.91;21.52;99225.81;5004025;28;20027;-79
2022/10/28 01:55:41;;;;;;;6.10;3.13;;;;;;;27.69;21.39;99219.00;5010474;28;20039;-79
2022/10/28 01:58:11;;;;;;;2.88;2.13;;;;;;;27.76;20.76;99221.69;5010864;28;20042;-79
2022/10/28 02:00:38;;;;;;;2.95;2.22;;;;;;;27.78;20.55;99222.06;5015281;28;20483;-79
2022/10/28 02:03:07;;;;;;;3.00;2.13;;;;;;;27.44;21.25;99224.31;5010870;28;20475;-79
2022/10/28 02:05:37;;;;;;;3.40;2.33;;;;;;;27.47;21.07;99214.97;5016069;28;20064;-79
2022/10/28 02:08:18;;;;;;;4.10;2.35;;;;;;;27.34;21.95;99211.94;5016130;28;20038;-79
2022/10/28 02:10:50;;;;;;;;;;;;;;;26.92;22.34;99211.84;5007403;28;20393;-79
2022/10/28 02:13:20;;;;;;;3.95;2.42;;;;;;;27.00;22.72;99207.69;5015567;28;19917;-78
2022/10/28 02:16:05;;;;;;;6.00;3.40;;;;;;;27.07;23.12;99210.41;5014491;28;20034;-79
2022/10/28 02:18:58;;;;;;;6.28;2.85;;;;;;;26.76;22.63;99206.84;5007712;28;20034;-79
2022/10/28 02:21:29;;;;;;;3.90;2.55;;;;;;;26.71;22.51;99202.47;5001444;28;20065;-79
2022/10/28 02:24:07;;;;;;;3.40;2.47;;;;;;;26.67;22.94;99196.09;5008579;28;20508;-79
2022/10/28 02:26:38;;;;;;;3.20;1.95;;;;;;;27.04;22.75;99189.50;5007298;28;20037;-79
2022/10/28 02:29:04;;;;;;;;;;;;;;;26.84;22.98;99187.81;5005787;28;20037;-79
2022/10/28 02:31:42;;;;;;;5.20;2.15;;;;;;;27.04;23.00;99177.41;5013026;28;19913;-79
2022/10/28 02:34:20;;;;;;;2.35;2.05;;;;;;;27.00;23.21;99182.31;5012519;28;20041;-78
2022/10/28 02:36:50;;;;;;;3.53;2.15;;;;;;;26.88;23.81;99180.09;5014084;28;20026;-79
2022/10/28 02:39:20;;;;;;;6.47;2.10;;;;;;;26.99;23.94;99192.00;5011207;28;20041;-79
2022/10/28 02:41:59;;;;;;;3.58;2.78;;;;;;;27.13;23.85;99181.28;5005706;28;20069;-78
2022/10/28 02:44:33;;;;;;;2.97;1.80;;;;;;;27.48;23.13;99179.09;5009761;28;20030;-79
2022/10/28 02:47:12;;;;;;;2.88;2.25;;;;;;;27.53;22.44;99170.94;5013335;28;20121;-78
2022/10/28 02:49:43;;;;;;;2.22;1.80;;;;;;;27.59;22.34;99169.19;5015828;28;20026;-79
2022/10/28 02:52:10;;;;;;;2.55;1.83;;;;;;;27.53;22.36;99178.59;5013250;28;20029;-79
2022/10/28 02:54:52;;;;;;;1.80;1.70;;;;;;;27.40;22.45;99179.22;5014408;28;20037;-79
2022/10/28 02:57:31;;;;;;;2.53;2.00;;;;;;;27.26;22.88;99173.78;5010515;28;20030;-79
2022/10/28 03:00:01;;;;;;;1.92;1.60;;;;;;;27.45;22.30;99171.47;5016110;28;20080;-79
2022/10/28 03:02:27;;;;;;;2.45;1.88;;;;;;;27.54;21.69;99166.88;5012704;28;20026;-79
2022/10/28 03:04:53;;;;;;;1.85;1.70;;;;;;;27.58;21.33;99158.34;5014184;28;20045;-79
2022/10/28 03:07:19;;;;;;;3.15;1.85;;;;;;;27.40;21.17;99162.28;5013942;28;20509;-79
2022/10/28 03:09:46;;;;;;;2.22;1.73;;;;;;;27.48;21.55;99157.31;5013348;28;20042;-79
2022/10/28 03:12:12;;;;;;;2.30;1.83;;;;;;;27.44;21.58;99158.63;5009030;28;20041;-78
2022/10/28 03:14:38;;;;;;;3.28;1.90;;;;;;;27.46;21.79;99153.34;5014808;28;20033;-79
2022/10/28 03:17:04;;;;;;;2.15;1.85;;;;;;;27.45;22.29;99158.19;5002293;28;20172;-79
2022/10/28 03:19:30;;;;;;;2.25;1.75;;;;;;;27.38;22.70;99158.31;5010175;28;20603;-79
2022/10/28 03:21:56;;;;;;;2.58;2.00;;;;;;;27.42;23.31;99156.25;5014765;28;20042;-79
2022/10/28 03:24:23;;;;;;;1.98;1.75;;;;;;;27.66;22.38;99154.16;5013267;28;20041;-79
2022/10/28 03:26:49;;;;;;;3.10;2.20;;;;;;;27.80;21.26;99163.13;5011624;28;20037;-79
2022/10/28 03:29:15;;;;;;;3.83;2.10;;;;;;;27.73;20.41;99157.63;5013521;28;20518;-79
2022/10/28 03:31:41;;;;;;;3.50;2.47;;;;;;;27.48;20.74;99162.16;5009815;28;20038;-79
2022/10/28 03:34:07;;;;;;;2.60;2.15;;;;;;;27.47;20.75;99157.75;5002512;28;20027;-79
2022/10/28 03:36:33;;;;;;;1.88;1.60;;;;;;;27.60;20.39;99164.34;5009084;28;20065;-79
2022/10/28 03:38:59;;;;;;;2.88;2.10;;;;;;;27.23;19.94;99168.22;5011680;28;20030;-79
2022/10/28 03:41:26;;;;;;;2.60;2.00;;;;;;;27.01;20.31;99170.63;5010772;28;20046;-79
2022/10/28 03:43:52;;;;;;;2.20;1.90;;;;;;;27.06;20.32;99175.78;5012559;28;20515;-79
2022/10/28 03:46:18;;;;;;;3.90;2.70;;;;;;;27.02;20.27;99168.59;5013795;28;20038;-79
2022/10/28 03:48:44;;;;;;;3.95;3.08;;;;;;;26.54;20.56;99164.06;5010642;28;20034;-79
2022/10/28 03:51:10;;;;;;;3.92;3.05;;;;;;;26.35;20.93;99164.75;5009996;28;20040;-79
2022/10/28 03:53:36;;;;;;;4.22;2.85;;;;;;;26.44;21.10;99162.19;4997151;28;20092;-78
2022/10/28 03:56:03;;;;;;;5.47;3.15;;;;;;;26.60;21.49;99162.41;5013018;28;20071;-78
2022/10/28 03:58:29;;;;;;;3.03;2.25;;;;;;;26.79;21.21;99166.56;5009281;28;20066;-78
2022/10/28 04:00:56;;;;;;;3.65;2.75;;;;;;;26.75;21.42;99165.78;5007489;28;20036;-78
2022/10/28 04:03:23;;;;;;;3.10;2.50;;;;;;;26.47;21.43;99169.00;5012171;28;20530;-79
2022/10/28 04:05:50;;;;;;;3.15;2.42;;;;;;;26.60;20.62;99165.22;5010951;28;20044;-79
2022/10/28 04:08:18;;;;;;;2.30;1.80;;;;;;;26.30;21.16;99161.63;5008248;28;20073;-79
2022/10/28 04:10:45;;;;;;;2.88;2.25;;;;;;;26.42;21.52;99163.88;5005565;28;20030;-79
2022/10/28 04:13:12;;;;;;;3.17;1.80;;;;;;;26.74;21.41;99161.38;5014079;28;20029;-79
2022/10/28 04:15:38;;;;;;;2.78;2.10;;;;;;;26.62;21.06;99159.94;5007572;28;20038;-79
2022/10/28 04:18:05;;;;;;;3.00;2.08;;;;;;;26.33;20.85;99155.13;5011456;28;20069;-79
2022/10/28 04:20:31;;;;;;;3.15;2.58;;;;;;;26.33;20.60;99155.13;5006457;28;20511;-79
2022/10/28 04:22:57;;;;;;;4.43;2.85;;;;;;;26.07;20.96;99159.47;5011046;28;20423;-79
2022/10/28 04:25:25;;;;;;;4.55;2.33;;;;;;;25.72;22.04;99159.94;5010800;28;20045;-79
2022/10/28 04:27:51;;;;;;;1.98;1.77;;;;;;;25.67;22.67;99160.38;5010879;28;20041;-79
2022/10/28 04:30:19;;;;;;;2.45;2.08;;;;;;;25.70;22.16;99151.88;5011888;28;20492;-79
2022/10/28 04:32:45;;;;;;;3.13;2.22;;;;;;;25.68;22.57;99147.91;5004460;28;20052;-79
2022/10/28 04:35:12;;;;;;;2.05;1.85;;;;;;;25.85;22.30;99146.91;5004865;28;20113;-79
2022/10/28 04:37:39;;;;;;;2.80;1.98;;;;;;;26.11;21.78;99145.38;5006000;28;20033;-79
2022/10/28 04:40:07;;;;;;;3.65;1.95;;;;;;;26.43;21.59;99140.91;5004519;28;20129;-79
2022/10/28 04:42:33;;;;;;;1.95;1.60;;;;;;;26.73;21.56;99143.66;5002021;28;20119;-79
2022/10/28 04:44:59;;;;;;;2.05;1.70;;;;;;;26.91;21.04;99134.16;5012658;28;20033;-79
2022/10/28 04:47:25;;;;;;;1.70;1.58;;;;;;;27.06;20.88;99133.47;5013922;28;20034;-78
2022/10/28 04:49:51;;;;;;;2.28;1.90;;;;;;;26.99;21.03;99129.97;5013342;28;20688;-78
2022/10/28 04:52:17;;;;;;;1.50;1.40;;;;;;;26.55;21.59;99128.25;5012437;28;20030;-79
2022/10/28 04:54:43;;;;;;;2.20;2.00;;;;;;;26.55;22.02;99126.25;5007301;28;20067;-77
2022/10/28 04:57:09;;;;;;;1.52;1.42;;;;;;;26.62;21.91;99120.50;5011453;28;20037;-77
2022/10/28 04:59:36;;;;;;;1.40;1.30;;;;;;;26.67;21.93;99120.03;5008494;28;20030;-77
2022/10/28 05:02:02;;;;;;;2.35;1.45;;;;;;;26.62;22.62;99122.50;5008421;28;20120;-77
2022/10/28 05:04:28;;;;;;;3.53;2.10;;;;;;;26.77;22.81;99121.06;5013620;28;20377;-77
2022/10/28 05:06:54;;;;;;;3.13;1.90;;;;;;;26.99;22.46;99113.88;5013850;28;20041;-77
2022/10/28 05:09:20;;;;;;;2.75;1.85;;;;;;;27.16;22.03;99117.59;5012904;28;20045;-77
2022/10/28 05:11:46;;;;;;;3.30;2.20;;;;;;;27.06;22.08;99119.38;5014010;28;20091;-77
2022/10/28 05:14:12;;;;;;;1.73;1.60;;;;;;;27.06;22.00;99116.56;5013591;28;20042;-77
2022/10/28 05:16:39;;;;;;;2.20;1.67;;;;;;;27.20;21.65;99116.31;5008195;28;20088;-77
2022/10/28 05:19:05;;;;;;;2.45;1.77;;;;;;;27.19;21.40;99123.16;5008675;28;20113;-77
2022/10/28 05:21:31;;;;;;;3.10;1.70;;;;;;;27.17;21.03;99124.81;5013458;28;20057;-77
2022/10/28 05:23:57;;;;;;;2.70;1.67;;;;;;;26.91;20.67;99114.44;5012765;28;20052;-77
2022/10/28 05:26:23;;;;;;;2.10;1.85;;;;;;;26.13;22.26;99123.25;5012622;28;20030;-77
2022/10/28 05:28:50;;;;;;;1.60;1.50;;;;;;;26.11;22.85;99120.06;5011658;28;20034;-77
2022/10/28 05:31:17;;;;;;;2.80;1.58;;;;;;;26.19;22.78;99122.34;5013305;28;20104;-77
2022/10/28 05:33:43;;;;;;;1.42;1.33;;;;;;;26.24;23.52;99119.06;5011603;28;20148;-77
2022/10/28 05:36:09;;;;;;;2.42;1.77;;;;;;;26.49;22.81;99124.34;5013291;28;20045;-77
2022/10/28 05:38:35;;;;;;;1.60;1.30;;;;;;;26.80;22.45;99127.88;5001494;28;20066;-77
2022/10/28 05:41:02;;;;;;;1.95;1.35;;;;;;;26.86;22.74;99120.56;5000672;28;20042;-77
2022/10/28 05:43:28;;;;;;;1.85;1.58;;;;;;;26.91;21.95;99122.88;5012061;28;20585;-78
2022/10/28 05:45:56;;;;;;;1.42;1.33;;;;;;;26.71;22.30;99120.75;5013105;28;20117;-77
2022/10/28 05:48:23;;;;;;;1.48;1.38;;;;;;;26.83;22.63;99125.03;5013308;28;20446;-77
2022/10/28 05:50:49;;;;;;;1.75;1.48;;;;;;;26.92;22.87;99122.44;5012403;28;20491;-77
2022/10/28 05:53:16;;;;;;;2.13;1.70;;;;;;;27.13;22.92;99124.91;5012045;28;20026;-77
2022/10/28 05:55:42;;;;;;;2.42;1.30;;;;;;;27.07;23.26;99128.66;5013323;28;20046;-77
2022/10/28 05:58:08;;;;;;;2.22;1.40;;;;;;;27.21;23.66;99134.03;5013199;28;20071;-77
2022/10/28 06:00:35;;;;;;;2.28;1.83;;;;;;;27.53;22.85;99136.28;5012835;28;20070;-79
2022/10/28 06:03:10;;;;;;;2.05;1.63;;;;;;;27.90;22.09;99136.72;5012972;28;20041;-78
2022/10/28 06:05:42;;;;;;;1.88;1.40;;;;;;;28.15;21.33;99136.22;5013456;28;20030;-78
2022/10/28 06:08:09;;;;;;;1.73;1.60;;;;;;;28.20;21.14;99123.59;5004487;28;20030;-78
2022/10/28 06:10:35;;;;;;;1.55;1.35;;;;;;;28.41;20.95;99125.97;5024321;28;20042;-78
2022/10/28 06:13:01;;;;;;;3.70;1.67;;;;;;;28.08;21.14;99120.22;4993528;28;20507;-78
2022/10/28 06:15:27;;;;;;;2.00;1.48;;;;;;;27.87;21.74;99128.31;4993113;28;20102;-78
2022/10/28 06:17:53;;;;;;;1.50;1.35;;;;;;;27.87;21.90;99128.31;4993450;28;20549;-78
2022/10/28 06:20:20;;;;;;;2.58;1.40;;;;;;;27.98;22.71;99124.03;4993304;28;20149;-78
2022/10/28 06:22:50;;;;;;;3.53;1.38;;;;;;;28.08;23.07;99122.25;5006616;28;20072;-78
2022/10/28 06:25:18;;;;;;;1.83;1.40;;;;;;;27.87;23.16;99126.31;5004726;28;20035;-78
2022/10/28 06:27:44;;;;;;;1.58;1.13;;;;;;;27.68;23.74;99131.97;5013229;28;20030;-78
2022/10/28 06:30:11;;;;;;;2.20;1.27;;;;;;;28.13;23.85;99118.13;5012968;28;20038;-78
2022/10/28 06:32:37;;;;;;;1.73;1.30;;;;;;;28.52;23.67;99124.47;5011565;28;20038;-78
2022/10/28 06:35:03;;;;;;;1.55;1.45;;;;;;;28.94;23.13;99116.22;5012791;28;20026;-78
2022/10/28 06:37:30;;;;;;;1.38;1.25;;;;;;;28.93;22.91;99121.09;5009664;28;20041;-78
2022/10/28 06:39:57;;;;;;;2.10;1.40;;;;;;;29.00;22.93;99118.09;5012283;28;20396;-78
2022/10/28 06:42:23;;;;;;;1.45;1.23;;;;;;;28.87;23.29;99122.84;5002150;28;20026;-78
2022/10/28 06:44:51;;;;;;;1.63;1.38;;;;;;;28.70;24.00;99133.38;5014177;28;20022;-78
2022/10/28 06:47:17;;;;;;;1.10;1.00;;;;;;;28.93;23.93;99126.75;5016560;28;20368;-78
2022/10/28 06:49:43;;;;;;;1.48;1.20;;;;;;;29.08;23.98;99125.13;5016308;28;20561;-78
2022/10/28 06:52:09;;;;;;;3.42;2.17;;;;;;;29.21;24.03;99130.91;5015578;28;20044;-78
2022/10/28 06:54:35;;;;;;;1.48;1.27;;;;;;;29.12;24.22;99134.34;5016324;28;20026;-78
2022/10/28 06:57:01;;;;;;;1.50;1.40;;;;;;;29.41;23.89;99134.41;5014600;28;20042;-78
2022/10/28 06:59:27;;;;;;;2.50;1.40;;;;;;;29.62;23.81;99138.66;5007190;28;20026;-78
2022/10/28 07:01:53;;;;;;;1.17;1.08;;;;;;;29.81;23.76;99135.72;5016049;28;20120;-78
2022/10/28 07:04:19;;;;;;;1.40;1.25;;;;;;;29.82;23.35;99133.69;5016025;28;20436;-78
2022/10/28 07:06:46;;;;;;;1.38;1.27;;;;;;;29.91;23.14;99133.84;5016064;28;20125;-78
2022/10/28 07:09:15;;;;;;;2.05;1.63;;;;;;;29.68;23.51;99132.03;5015992;28;20569;-79
2022/10/28 07:11:44;;;;;;;1.17;1.15;;;;;;;29.81;23.73;99137.75;5015090;28;20030;-78
2022/10/28 07:14:10;;;;;;;1.95;1.40;;;;;;;29.99;23.72;99140.91;5013948;28;20554;-78
2022/10/28 07:16:36;;;;;;;1.50;1.23;;;;;;;30.11;23.87;99136.50;5014338;28;20041;-78
2022/10/28 07:19:03;;;;;;;2.70;1.10;;;;;;;30.36;23.53;99137.34;5015810;28;20105;-78
2022/10/28 07:21:29;;;;;;;1.08;1.00;;;;;;;30.66;23.19;99133.16;5015774;28;20061;-78
2022/10/28 07:23:55;;;;;;;1.83;1.70;;;;;;;30.05;23.90;99139.09;5015775;28;20490;-78
2022/10/28 07:26:22;;;;;;;1.75;1.63;;;;;;;29.77;24.44;99134.25;5015559;28;20496;-78
2022/10/28 07:28:49;;;;;;;1.98;1.67;;;;;;;29.87;24.64;99131.09;5013781;28;20037;-78
2022/10/28 07:31:15;;;;;;;2.00;1.40;;;;;;;29.97;24.69;99137.69;5016002;28;20037;-78
2022/10/28 07:33:42;;;;;;;1.50;1.38;;;;;;;30.20;24.54;99139.47;5012083;28;20034;-78
2022/10/28 07:36:09;;;;;;;3.78;1.33;;;;;;;30.47;24.57;99132.16;5015494;28;20416;-78
2022/10/28 07:38:35;;;;;;;1.55;1.35;;;;;;;30.77;24.08;99134.41;5005944;28;20157;-78
2022/10/28 07:41:08;;;;;;;1.48;1.27;;;;;;;30.85;24.10;99137.81;5015064;28;20046;-78
2022/10/28 07:43:38;;;;;;;1.40;1.30;;;;;;;30.71;24.99;99141.09;5014316;28;20022;-78
2022/10/28 07:46:06;;;;;;;1.60;1.00;;;;;;;30.92;24.08;99139.66;5015785;28;20103;-78
2022/10/28 07:48:33;;;;;;;1.20;0.90;;;;;;;30.85;23.97;99143.47;5015330;28;20312;-78
2022/10/28 07:51:01;;;;;;;0.75;0.75;;;;;;;30.83;24.37;99139.50;5006059;28;20030;-78
2022/10/28 07:53:27;;;;;;;1.33;1.20;;;;;;;30.75;24.44;99142.59;5015228;28;20026;-78
2022/10/28 07:55:58;;;;;;;1.35;1.25;;;;;;;30.20;25.76;99139.47;5013883;28;20562;-79
2022/10/28 07:58:25;;;;;;;1.35;1.08;;;;;;;29.75;26.69;99143.16;5013984;28;20033;-78
2022/10/28 08:00:52;;;;;;;1.35;0.90;;;;;;;30.32;25.48;99150.00;5014424;28;20034;-78
2022/10/28 08:03:18;;;;;;;1.00;0.88;;;;;;;30.77;25.32;99142.13;5015110;28;20054;-78
2022/10/28 08:05:45;;;;;;;1.05;0.80;;;;;;;31.00;24.69;99138.16;5015163;28;20033;-78
2022/10/28 08:08:12;;;;;;;3.22;1.02;;;;;;;31.22;24.73;99136.97;5006509;28;20026;-78
2022/10/28 08:10:38;;;;;;;2.05;0.95;;;;;;;31.19;24.06;99125.75;5015020;28;20034;-78
2022/10/28 08:13:05;;;;;;;0.85;0.70;;;;;;;31.40;24.44;99134.31;5015101;28;20049;-78
2022/10/28 08:15:32;;;;;;;1.90;0.80;;;;;;;31.84;23.36;99132.31;5013797;28;20479;-78
2022/10/28 08:17:58;;;;;;;1.10;0.70;;;;;;;32.18;23.12;99125.00;5014710;28;20034;-78
2022/10/28 08:20:24;;;;;;;1.25;0.70;;;;;;;31.89;24.08;99128.91;5013335;28;20034;-78
2022/10/28 08:22:50;;;;;;;0.95;0.85;;;;;;;32.15;24.48;99123.88;5012191;28;20508;-78
2022/10/28 08:25:16;;;;;;;1.00;0.90;;;;;;;32.20;24.40;99131.00;5006381;28;20034;-78
2022/10/28 08:27:42;;;;;;;1.10;0.77;;;;;;;32.22;24.77;99128.50;5013618;28;20034;-78
2022/10/28 08:30:09;;;;;;;2.25;0.90;;;;;;;32.12;24.42;99124.00;5014552;28;20030;-78
2022/10/28 08:32:37;;;;;;;0.70;0.70;;;;;;;32.47;23.97;99117.72;5009974;28;20042;-78
2022/10/28 08:35:04;;;;;;;0.90;0.82;;;;;;;32.80;23.53;99120.09;5013282;28;20116;-78
2022/10/28 08:37:30;;;;;;;2.55;0.75;;;;;;;32.93;23.56;99115.09;5014332;28;20069;-78
2022/10/28 08:39:56;;;;;;;1.15;0.82;;;;;;;32.99;23.09;99113.19;5012964;28;20042;-78
2022/10/28 08:42:45;;;;;;;1.75;0.70;;;;;;;32.93;23.50;99115.84;5013012;28;20130;-78
2022/10/28 08:45:18;;;;;;;0.60;0.60;;;;;;;32.85;24.32;99111.75;5014679;28;20034;-78
2022/10/28 08:48:11;;;;;;;1.25;0.88;;;;;;;32.14;24.26;99113.00;5014261;28;20018;-78
2022/10/28 08:50:51;;;;;;;2.38;1.00;;;;;;;32.40;24.20;99118.00;5014110;28;20554;-79
2022/10/28 08:53:29;;;;;;;2.28;0.95;;;;;;;32.58;24.17;99105.97;5012770;28;20488;-79
2022/10/28 08:56:18;;;;;;;2.33;0.70;;;;;;;32.83;23.96;99108.56;5014093;28;20026;-79
2022/10/28 08:58:46;;;;;;;1.77;0.80;;;;;;;33.06;23.23;99108.03;5004876;28;20038;-78
2022/10/28 09:01:29;;;;;;;3.42;0.80;;;;;;;32.95;24.47;99106.88;5014136;28;20498;-79
2022/10/28 09:04:01;;;;;;;0.85;0.80;;;;;;;32.93;23.80;99109.41;5014265;28;20022;-79
2022/10/28 09:06:29;;;;;;;0.75;0.70;;;;;;;32.83;24.36;99100.03;5014044;28;20091;-78
2022/10/28 09:08:57;;;;;;;0.73;0.73;;;;;;;32.95;24.77;99109.72;5013428;28;20061;-79
2022/10/28 09:11:46;;;;;;;1.80;1.00;;;;;;;32.90;24.48;99111.13;5013741;28;20029;-79
2022/10/28 09:14:19;;;;;;;1.55;0.90;;;;;;;32.92;24.74;99102.13;5012085;28;20056;-79
2022/10/28 09:17:04;;;;;;;1.25;0.80;;;;;;;33.03;24.58;99099.63;5007152;28;20038;-79
2022/10/28 09:19:44;;;;;;;1.00;0.90;;;;;;;33.04;23.98;99104.88;5013764;28;20053;-79
2022/10/28 09:22:33;;;;;;;1.23;0.73;;;;;;;33.50;24.65;99100.00;5010719;28;20804;-79
2022/10/28 09:25:12;;;;;;;1.55;0.88;;;;;;;33.92;23.92;99100.16;5012651;28;20034;-79
2022/10/28 09:28:10;;;;;;;2.95;0.77;;;;;;;34.11;23.57;99104.56;5012396;28;20468;-79
2022/10/28 09:30:47;;;;;;;0.80;0.80;;;;;;;34.08;23.83;99096.97;5013524;28;20033;-79
2022/10/28 09:33:28;;;;;;;0.95;0.60;;;;;;;33.75;24.05;99096.84;5005569;28;20092;-78
2022/10/28 09:35:55;;;;;;;;;;;;;;;33.85;23.54;99092.72;5004389;28;20030;-79
2022/10/28 09:38:36;;;;;;;1.10;0.68;;;;;;;33.70;25.24;99085.31;4996345;28;19940;-79
2022/10/28 09:41:08;;;;;;;1.42;0.60;;;;;;;33.92;23.88;99085.91;5013318;28;20065;-79
2022/10/28 09:43:58;;;;;;;1.48;0.80;;;;;;;33.63;24.69;99091.34;5013219;28;20033;-79
2022/10/28 09:46:28;;;;;;;2.50;0.70;;;;;;;33.59;24.82;99085.78;5012833;28;20496;-79
2022/10/28 09:49:01;;;;;;;0.90;0.70;;;;;;;33.76;24.76;99089.09;5012698;28;20022;-79
2022/10/28 09:51:42;;;;;;;3.65;1.38;;;;;;;33.70;25.56;99088.16;5013244;28;20502;-79
2022/10/28 09:54:10;;;;;;;1.42;0.80;;;;;;;34.08;23.48;99085.56;5012200;28;20440;-79
2022/10/28 09:56:37;;;;;;;0.57;0.57;;;;;;;34.49;23.64;99087.66;5013518;28;20030;-79
2022/10/28 09:59:04;;;;;;;0.80;0.80;;;;;;;34.27;24.31;99089.94;5013163;28;20506;-79
2022/10/28 10:01:36;;;;;;;0.73;0.73;;;;;;;34.41;23.51;99080.72;5012841;28;20084;-79
2022/10/28 10:04:11;;;;;;;1.85;0.80;;;;;;;34.15;23.94;99073.03;4993605;28;20034;-79
2022/10/28 10:06:41;;;;;;;1.48;0.75;;;;;;;34.80;23.49;99070.25;4998905;28;20033;-78
2022/10/28 10:09:19;;;;;;;2.28;0.80;;;;;;;34.57;23.65;99066.09;5013394;28;20045;-79
2022/10/28 10:11:47;;;;;;;1.48;0.90;;;;;;;35.06;22.93;99071.38;5013175;28;20030;-79
2022/10/28 10:14:33;;;;;;;1.95;0.90;;;;;;;34.41;23.67;99077.06;5013246;28;20026;-79
2022/10/28 10:17:04;;;;;;;0.90;0.82;;;;;;;34.80;23.79;99070.25;5012986;28;20033;-79
2022/10/28 10:20:00;;;;;;;0.85;0.80;;;;;;;34.58;23.66;99073.38;5014039;28;20443;-79
2022/10/28 10:22:30;;;;;;;1.13;0.68;;;;;;;34.90;23.30;99071.78;5006281;28;20084;-79
2022/10/28 10:24:56;;;;;;;2.45;0.88;;;;;;;35.17;22.49;99067.97;5010712;28;20038;-79
2022/10/28 10:27:26;;;;;;;0.73;0.60;;;;;;;35.28;23.47;99063.28;5016767;28;20094;-79
2022/10/28 10:29:53;;;;;;;3.55;0.93;;;;;;;35.55;21.93;99068.00;5016811;28;20034;-79
2022/10/28 10:32:24;;;;;;;0.80;0.70;;;;;;;35.89;22.35;99070.22;5016853;28;20471;-79
2022/10/28 10:35:05;;;;;;;1.25;0.70;;;;;;;35.92;22.54;99077.00;5008311;28;20018;-79
2022/10/28 10:37:34;;;;;;;2.97;1.33;;;;;;;36.11;21.83;99072.69;5015398;28;20080;-79
2022/10/28 10:40:17;;;;;;;0.75;0.73;;;;;;;36.11;21.59;99069.84;5010826;28;20128;-79
2022/10/28 10:42:43;;;;;;;1.20;0.93;;;;;;;35.85;21.69;99075.31;5016351;28;20033;-79
2022/10/28 10:45:23;;;;;;;1.42;0.85;;;;;;;36.01;21.93;99074.09;5015263;28;20384;-79
2022/10/28 10:48:20;;;;;;;1.05;0.70;;;;;;;36.28;21.52;99067.25;5016828;28;20038;-79
2022/10/28 10:50:48;;;;;;;1.35;0.60;;;;;;;36.39;21.17;99064.56;5014810;28;20042;-79
2022/10/28 10:53:30;;;;;;;1.23;0.75;;;;;;;36.30;22.63;99064.69;5016719;28;20042;-80
2022/10/28 10:56:07;;;;;;;0.88;0.70;;;;;;;36.54;23.05;99065.38;5016299;28;20476;-79
2022/10/28 10:58:55;;;;;;;1.50;0.90;;;;;;;36.17;22.27;99064.22;5015349;28;20108;-79
2022/10/28 11:01:23;;;;;;;0.82;0.75;;;;;;;36.27;20.98;99062.84;5016069;28;20030;-79
2022/10/28 11:03:52;;;;;;;1.13;0.68;;;;;;;36.45;21.80;99062.63;5016164;28;20025;-79
2022/10/28 11:06:38;;;;;;;1.48;0.73;;;;;;;36.61;21.72;99059.25;5015545;28;20038;-79
2022/10/28 11:09:16;;;;;;;0.77;0.65;;;;;;;36.85;20.45;99054.13;5016095;28;20087;-79
2022/10/28 11:11:42;;;;;;;1.38;0.60;;;;;;;36.72;20.75;99050.81;5016134;28;20088;-79
2022/10/28 11:14:09;;;;;;;0.60;0.50;;;;;;;36.73;21.23;99046.69;5008866;28;20081;-79
2022/10/28 11:16:53;;;;;;;1.95;0.50;;;;;;;36.89;21.66;99051.06;5014780;28;20037;-79
2022/10/28 11:19:31;;;;;;;1.00;0.65;;;;;;;36.73;20.93;99050.34;5001370;28;20061;-80
2022/10/28 11:22:38;;;;;;;1.00;0.60;;;;;;;36.64;21.57;99053.28;5014496;28;20068;-79
2022/10/28 11:25:16;;;;;;;0.52;0.50;;;;;;;36.90;20.87;99044.06;5014953;28;20068;-79
2022/10/28 11:28:04;;;;;;;1.45;0.82;;;;;;;36.52;20.25;99047.94;5015719;28;20492;-79
2022/10/28 11:30:56;;;;;;;0.57;0.57;;;;;;;36.52;20.92;99042.19;5010770;28;20045;-79
2022/10/28 11:33:43;;;;;;;1.10;0.50;;;;;;;36.87;21.26;99045.84;5012681;28;20038;-79
2022/10/28 11:36:18;;;;;;;0.80;0.80;;;;;;;36.89;20.62;99040.41;5015636;28;20045;-79
2022/10/28 11:39:02;;;;;;;0.75;0.75;;;;;;;36.71;21.19;99035.72;5015425;28;20064;-79
2022/10/28 11:41:36;;;;;;;0.70;0.60;;;;;;;36.78;21.17;99039.44;5015605;28;20038;-79
2022/10/28 11:44:22;;;;;;;0.60;0.60;;;;;;;36.28;22.83;99042.31;5015425;28;20034;-79
2022/10/28 11:47:03;;;;;;;0.88;0.70;;;;;;;36.34;21.73;99033.84;5014359;28;20079;-79
2022/10/28 11:50:00;;;;;;;0.50;0.50;;;;;;;36.72;21.33;99027.91;5006971;28;20092;-80
2022/10/28 11:52:41;;;;;;;1.02;0.85;;;;;;;36.91;19.86;99023.53;5010543;28;20049;-80
2022/10/28 11:55:38;;;;;;;0.88;0.65;;;;;;;37.16;20.77;99030.59;5015204;28;20034;-79